M I D A S
Marine Information and Data Acquisition System
Tripno 2246 of the Zeeleeuw from 2011-11-23 07:52:18 to 2011-11-23 15:39:22
Back to CruiseResearch ActivitiesStationsMapUnderway DataData graphs

EquipmentUnitsComment
TimeDGPSUTC
LatitudeDGPSDM.mWGS84
LongitudeDGPSDM.mWGS84
HeadingGyrodeg 
SOGDGPSknotsSpeed over ground
COGDGPSdegCourse over ground
DepthEcho soundermeters200 kHz
Missing or incorrect values are displayed as -999
Navigation data collected by the RV Zeeleeuw from 2011-11-23 07:42:10 to 2011-11-23 15:48:23
Time Latitude Longitude Heading SOG COG Depth
2011-11-23 07:43:16 51°13.636 2°56.02 125.8 0.1 17 9.2
2011-11-23 07:44:16 51°13.636 2°56.02 125.7 -999 284 9.1
2011-11-23 07:45:16 51°13.636 2°56.019 125.5 0.1 48 9.2
2011-11-23 07:46:16 51°13.636 2°56.019 125.2 0.1 55 9.2
2011-11-23 07:47:16 51°13.636 2°56.019 123.5 -999 280 9.1
2011-11-23 07:48:15 51°13.636 2°56.019 125.9 -999 70 9.3
2011-11-23 07:49:16 51°13.636 2°56.019 125.6 -999 76 9.3
2011-11-23 07:50:16 51°13.636 2°56.019 126 -999 359 9.4
2011-11-23 07:51:16 51°13.635 2°56.019 124.6 0.1 165 9.3
2011-11-23 07:52:16 51°13.634 2°56.019 113 0.1 191 9.9
2011-11-23 07:53:18 51°13.641 2°55.984 107.5 2.7 287 -999
2011-11-23 07:54:20 51°13.666 2°55.893 118 4.3 298 -999
2011-11-23 07:55:18 51°13.706 2°55.794 127.1 4.9 307 -999
2011-11-23 07:56:19 51°13.763 2°55.7 145.9 4.9 325 -999
2011-11-23 07:57:19 51°13.839 2°55.64 155.4 5.1 336 -999
2011-11-23 07:58:19 51°13.903 2°55.61 178.4 3.1 356 -999
2011-11-23 07:59:20 51°13.951 2°55.626 208 2.6 22 -999
2011-11-23 08:00:18 51°13.97 2°55.635 234.1 0.7 273 11
2011-11-23 08:01:17 51°13.979 2°55.585 297.2 3 304 12.4
2011-11-23 08:02:16 51°14.043 2°55.509 327.4 7.1 327 12.4
2011-11-23 08:03:17 51°14.166 2°55.392 330.6 9.3 331 -999
2011-11-23 08:04:19 51°14.315 2°55.256 331 10.6 330 -999
2011-11-23 08:05:19 51°14.47 2°55.1 328.2 11.2 326 12.3
2011-11-23 08:06:17 51°14.62 2°54.943 326.4 11.2 328 13.1
2011-11-23 08:07:16 51°14.786 2°54.822 344.3 11.2 347 11.4
2011-11-23 08:08:16 51°14.973 2°54.803 0.1 11.3 2 10.7
2011-11-23 08:09:16 51°15.148 2°54.9 27.3 11.3 30 10
2011-11-23 08:10:16 51°15.287 2°55.089 42.4 9.4 43 9.9
2011-11-23 08:11:16 51°15.379 2°55.127 333.7 4.9 329 10.1
2011-11-23 08:12:16 51°15.384 2°55.023 235.2 4.4 229 10.2
2011-11-23 08:13:16 51°15.307 2°55.007 174.7 5 172 10
2011-11-23 08:14:16 51°15.236 2°55.039 163.1 4 160 10
2011-11-23 08:15:16 51°15.181 2°55.055 190 2.9 187 10.2
2011-11-23 08:16:16 51°15.143 2°55.02 228.6 2.8 224 10.5
2011-11-23 08:17:16 51°15.103 2°54.957 225.8 3.7 223 10.9
2011-11-23 08:18:16 51°15.048 2°54.935 172.1 3.8 158 10.9
2011-11-23 08:19:16 51°15.019 2°55.028 89.6 4.4 83 11
2011-11-23 08:20:16 51°15.07 2°55.098 2.5 4.4 5 11
2011-11-23 08:21:16 51°15.178 2°55.062 342.6 8.1 346 10.5
2011-11-23 08:22:16 51°15.323 2°55.093 14.2 9.5 17 10.1
2011-11-23 08:23:16 51°15.465 2°55.217 36.7 9.9 40 10.4
2011-11-23 08:24:16 51°15.55 2°55.385 57.4 6.5 58 10.6
2011-11-23 08:25:16 51°15.601 2°55.507 51.8 5.2 53 10.6
2011-11-23 08:26:16 51°15.661 2°55.623 49.3 6.2 50 10.6
2011-11-23 08:27:16 51°15.728 2°55.759 53.4 6.5 54 10.9
2011-11-23 08:28:16 51°15.781 2°55.9 58.7 6.2 59 10.8
2011-11-23 08:29:16 51°15.835 2°56.042 61.6 6.2 61 10.8
2011-11-23 08:30:16 51°15.886 2°56.183 59 6.2 59 11
2011-11-23 08:31:16 51°15.941 2°56.323 56.7 6.2 57 10.9
2011-11-23 08:32:16 51°15.997 2°56.462 56.7 6.3 58 11.1
2011-11-23 08:33:17 51°16.053 2°56.605 58.3 6.3 58 11
2011-11-23 08:34:16 51°16.106 2°56.745 58.9 6.4 59 10.9
2011-11-23 08:35:16 51°16.159 2°56.893 60.2 6.5 62 11
2011-11-23 08:36:16 51°16.211 2°57.043 58.9 6.4 61 11.1
2011-11-23 08:37:17 51°16.268 2°57.192 56.4 6.5 58 11.2
2011-11-23 08:38:16 51°16.325 2°57.338 56.3 6.5 58 11
2011-11-23 08:39:16 51°16.379 2°57.482 57.9 6.3 59 11.2
2011-11-23 08:40:16 51°16.432 2°57.627 60.4 6.2 61 11.3
2011-11-23 08:41:16 51°16.481 2°57.771 60.6 6.3 60 11.5
2011-11-23 08:42:16 51°16.532 2°57.912 57.4 5.8 59 11.7
2011-11-23 08:43:16 51°16.581 2°58.034 56.2 5.3 58 11.7
2011-11-23 08:44:16 51°16.626 2°58.158 58.2 5.6 60 11.6
2011-11-23 08:45:16 51°16.673 2°58.29 60 5.8 62 11.9
2011-11-23 08:46:16 51°16.72 2°58.425 60.1 5.6 61 12
2011-11-23 08:47:16 51°16.767 2°58.554 58.2 5.6 59 11.8
2011-11-23 08:48:16 51°16.811 2°58.686 63.8 5.6 65 11.9
2011-11-23 08:49:16 51°16.85 2°58.822 66.2 5.6 67 11.9
2011-11-23 08:50:16 51°16.89 2°58.958 64.3 5.7 64 11.8
2011-11-23 08:51:16 51°16.933 2°59.092 61.6 5.7 62 11.8
2011-11-23 08:52:16 51°16.978 2°59.225 61.9 5.7 63 11.7
2011-11-23 08:53:16 51°17.022 2°59.36 61.7 5.8 62 11.8
2011-11-23 08:54:16 51°17.066 2°59.496 62.7 5.8 63 12
2011-11-23 08:55:16 51°17.108 2°59.636 66.4 5.9 65 11.8
2011-11-23 08:56:16 51°17.148 2°59.775 64.9 5.7 65 11.8
2011-11-23 08:57:16 51°17.189 2°59.91 63.2 5.7 63 11.8
2011-11-23 08:58:16 51°17.233 3°0.043 60.9 5.7 62 11.7
2011-11-23 08:59:16 51°17.278 3°0.177 61.5 5.8 62 11.7
2011-11-23 09:00:16 51°17.322 3°0.313 64.1 5.8 64 11.8
2011-11-23 09:01:16 51°17.367 3°0.449 60.4 5.8 61 11.9
2011-11-23 09:02:16 51°17.418 3°0.581 56.4 5.9 59 12
2011-11-23 09:03:16 51°17.469 3°0.715 57.7 5.9 59 11.8
2011-11-23 09:04:16 51°17.518 3°0.847 58.8 5.7 60 11.8
2011-11-23 09:05:16 51°17.564 3°0.977 61.4 5.6 62 11.9
2011-11-23 09:06:16 51°17.606 3°1.106 61.4 5.5 62 11.8
2011-11-23 09:07:16 51°17.65 3°1.233 60.1 5.5 60 11.9
2011-11-23 09:08:16 51°17.697 3°1.36 57.2 5.7 59 11.9
2011-11-23 09:09:16 51°17.746 3°1.481 52.5 5.5 56 12.1
2011-11-23 09:10:16 51°17.8 3°1.601 51.2 5.7 55 12.1
2011-11-23 09:11:16 51°17.857 3°1.732 53.9 6.1 56 12
2011-11-23 09:12:16 51°17.913 3°1.874 56.4 6.4 59 12
2011-11-23 09:13:16 51°17.97 3°2.019 55.9 6.5 58 11.9
2011-11-23 09:14:16 51°18.026 3°2.158 54.3 6 56 11.9
2011-11-23 09:15:16 51°18.084 3°2.29 51 6 55 12
2011-11-23 09:16:16 51°18.14 3°2.421 53.4 5.9 55 12
2011-11-23 09:17:16 51°18.195 3°2.553 54 5.9 56 11.8
2011-11-23 09:18:16 51°18.25 3°2.686 54.5 6 57 11.8
2011-11-23 09:19:16 51°18.303 3°2.819 56.4 5.9 58 11.8
2011-11-23 09:20:16 51°18.356 3°2.956 55.3 6.1 57 11.7
2011-11-23 09:21:16 51°18.41 3°3.091 54.5 6 57 11.8
2011-11-23 09:22:16 51°18.466 3°3.224 52.4 6 55 11.8
2011-11-23 09:23:16 51°18.529 3°3.343 37.1 5.7 45 11.9
2011-11-23 09:24:16 51°18.601 3°3.441 25.9 5.5 38 11.9
2011-11-23 09:25:16 51°18.678 3°3.532 23.3 5.9 37 11.8
2011-11-23 09:26:16 51°18.756 3°3.626 24.6 5.6 38 11.7
2011-11-23 09:27:16 51°18.834 3°3.722 26.6 5.8 39 11.6
2011-11-23 09:28:16 51°18.93 3°3.818 11.7 7.9 22 11.6
2011-11-23 09:29:16 51°19.073 3°3.868 356.1 9.1 7 11
2011-11-23 09:30:16 51°19.244 3°3.884 351.1 11.3 359 11
2011-11-23 09:31:16 51°19.432 3°3.858 343.6 11.3 351 11
2011-11-23 09:32:16 51°19.622 3°3.816 344.9 11.2 352 10.9
2011-11-23 09:33:16 51°19.816 3°3.79 346.3 11.7 355 10.6
2011-11-23 09:34:16 51°20.005 3°3.738 339.3 11.5 348 10.3
2011-11-23 09:35:16 51°20.193 3°3.683 341.4 11.4 349 10.2
2011-11-23 09:36:16 51°20.383 3°3.632 343 11.5 350 10.7
2011-11-23 09:37:16 51°20.569 3°3.571 338.7 11.5 348 11.1
2011-11-23 09:38:16 51°20.756 3°3.514 341.9 11.5 352 12
2011-11-23 09:39:16 51°20.942 3°3.461 339.7 11.4 349 12.8
2011-11-23 09:40:16 51°21.137 3°3.476 359.1 12 8 13.5
2011-11-23 09:41:16 51°21.335 3°3.505 356 11.8 5 14
2011-11-23 09:42:16 51°21.531 3°3.529 355.7 12 4 14.3
2011-11-23 09:43:16 51°21.718 3°3.495 340.5 11.3 349 14.7
2011-11-23 09:44:16 51°21.903 3°3.441 343 11.5 352 14.6
2011-11-23 09:45:16 51°22.092 3°3.406 344.6 11.5 353 14.7
2011-11-23 09:46:16 51°22.28 3°3.371 342.7 11.3 351 14.3
2011-11-23 09:47:16 51°22.466 3°3.336 345.6 11.2 354 14.7
2011-11-23 09:48:16 51°22.651 3°3.297 346.1 11.6 359 14.7
2011-11-23 09:49:16 51°22.839 3°3.302 355 11 3 14.4
2011-11-23 09:50:16 51°23.031 3°3.309 348.5 11.4 358 13.7
2011-11-23 09:51:16 51°23.217 3°3.29 347.3 11.4 358 13.2
2011-11-23 09:52:16 51°23.402 3°3.263 345.2 11.3 355 16
2011-11-23 09:53:16 51°23.591 3°3.247 346.6 11.2 356 16.9
2011-11-23 09:54:16 51°23.779 3°3.225 347 11.4 356 17.3
2011-11-23 09:55:16 51°23.969 3°3.215 349.4 11.5 359 17.6
2011-11-23 09:56:16 51°24.161 3°3.211 348.6 11.4 358 17.8
2011-11-23 09:57:16 51°24.347 3°3.184 345.3 11.1 354 19.4
2011-11-23 09:58:16 51°24.529 3°3.15 346.2 10.9 352 22.5
2011-11-23 09:59:16 51°24.691 3°3.049 325.4 10.5 334 21.5
2011-11-23 10:00:16 51°24.812 3°2.874 297.9 9.5 301 20
2011-11-23 10:01:16 51°24.853 3°2.631 275.2 9.6 279 19.3
2011-11-23 10:02:16 51°24.868 3°2.377 271.5 9.6 274 19.2
2011-11-23 10:03:16 51°24.885 3°2.124 274.9 9.6 278 19.5
2011-11-23 10:04:16 51°24.897 3°1.868 270.9 9.5 274 19.4
2011-11-23 10:05:16 51°24.911 3°1.611 276.2 9.7 278 19.4
2011-11-23 10:06:16 51°24.929 3°1.356 271 9.6 273 19.3
2011-11-23 10:07:16 51°24.933 3°1.099 266.9 9.7 269 19
2011-11-23 10:08:16 51°24.927 3°0.841 265.5 9.7 268 19.1
2011-11-23 10:09:16 51°24.924 3°0.585 266.2 9.6 269 19.4
2011-11-23 10:10:16 51°24.932 3°0.327 270.3 9.7 274 19.2
2011-11-23 10:11:16 51°24.943 3°0.069 269.4 9.7 274 19.9
2011-11-23 10:12:16 51°24.943 2°59.811 265.5 9.7 268 20.2
2011-11-23 10:13:16 51°24.941 2°59.552 266.5 9.7 271 20.2
2011-11-23 10:14:16 51°24.947 2°59.29 268.3 9.9 272 20.6
2011-11-23 10:15:16 51°24.955 2°59.029 268.6 9.8 272 21
2011-11-23 10:16:16 51°24.968 2°58.768 270.4 9.8 275 21.8
2011-11-23 10:17:16 51°24.98 2°58.507 268 9.7 272 22.3
2011-11-23 10:18:16 51°24.983 2°58.298 265 5.5 274 22.6
2011-11-23 10:19:16 51°24.993 2°58.167 269.1 5.3 278 23.2
2011-11-23 10:20:16 51°25.009 2°58.007 269.7 6.4 277 23.5
2011-11-23 10:21:16 51°25.022 2°57.837 267.6 6.3 276 24
2011-11-23 10:22:16 51°25.033 2°57.68 267.8 5.7 278 24.8
2011-11-23 10:23:16 51°25.048 2°57.528 268.9 5.7 277 25.3
2011-11-23 10:24:16 51°25.06 2°57.375 267.8 5.8 276 25.9
2011-11-23 10:25:16 51°25.07 2°57.22 266.4 5.8 276 26.5
2011-11-23 10:26:16 51°25.078 2°57.065 267.5 5.8 277 27.7
2011-11-23 10:27:16 51°25.096 2°56.91 271 5.9 282 27.6
2011-11-23 10:28:16 51°25.111 2°56.754 266.2 5.9 274 27.4
2011-11-23 10:29:16 51°25.119 2°56.6 267.6 5.9 277 27.4
2011-11-23 10:30:16 51°25.134 2°56.443 270 6 279 26.8
2011-11-23 10:31:16 51°25.153 2°56.285 271 6 281 26.8
2011-11-23 10:32:16 51°25.169 2°56.127 268.6 6 278 25.5
2011-11-23 10:33:16 51°25.184 2°55.969 269.4 6 278 24
2011-11-23 10:34:16 51°25.203 2°55.81 272.3 6.2 281 22.6
2011-11-23 10:35:16 51°25.225 2°55.65 272.8 6.2 281 20.9
2011-11-23 10:36:16 51°25.244 2°55.488 271.1 6.2 280 20.4
2011-11-23 10:37:16 51°25.259 2°55.325 270.1 6.2 279 20.6
2011-11-23 10:38:16 51°25.277 2°55.16 272.3 6.3 281 20.6
2011-11-23 10:39:16 51°25.299 2°54.995 272.6 6.3 281 21.3
2011-11-23 10:40:16 51°25.313 2°54.83 269.1 6.3 278 22.2
2011-11-23 10:41:16 51°25.33 2°54.663 271.2 6.3 281 20.2
2011-11-23 10:42:16 51°25.349 2°54.498 271.1 6.3 279 22.8
2011-11-23 10:43:16 51°25.367 2°54.331 272 6.3 280 21.9
2011-11-23 10:44:16 51°25.386 2°54.165 270.8 6.4 280 23.7
2011-11-23 10:45:16 51°25.401 2°53.999 270.5 6.3 279 23.3
2011-11-23 10:46:16 51°25.417 2°53.835 271.4 6.2 281 22.7
2011-11-23 10:47:16 51°25.438 2°53.672 272.3 6.2 280 24.5
2011-11-23 10:48:16 51°25.437 2°53.514 254.9 5.9 261 25.9
2011-11-23 10:49:16 51°25.423 2°53.36 254.7 5.8 262 25.9
2011-11-23 10:50:16 51°25.413 2°53.205 257.3 5.8 266 26
2011-11-23 10:51:16 51°25.407 2°53.053 257.6 5.8 267 26.2
2011-11-23 10:52:16 51°25.401 2°52.901 261.3 5.8 271 26.1
2011-11-23 10:53:16 51°25.41 2°52.746 266.5 5.9 277 26.5
2011-11-23 10:54:16 51°25.42 2°52.59 265 5.8 276 26.3
2011-11-23 10:55:16 51°25.423 2°52.437 260.7 5.7 269 26.2
2011-11-23 10:56:16 51°25.424 2°52.283 261.9 5.8 270 27.9
2011-11-23 10:57:16 51°25.428 2°52.127 264.7 6 273 29.3
2011-11-23 10:58:16 51°25.436 2°51.97 265.4 5.9 275 29.9
2011-11-23 10:59:16 51°25.443 2°51.813 264.1 5.9 273 27.2
2011-11-23 11:00:16 51°25.445 2°51.659 260.8 5.7 270 26.4
2011-11-23 11:01:16 51°25.444 2°51.507 261 5.7 270 25.7
2011-11-23 11:02:16 51°25.445 2°51.355 263 5.8 272 25.7
2011-11-23 11:03:16 51°25.452 2°51.201 265.8 5.9 276 25.7
2011-11-23 11:04:16 51°25.459 2°51.045 265.2 5.8 274 25.6
2011-11-23 11:05:16 51°25.461 2°50.89 261.1 5.8 268 25.9
2011-11-23 11:06:16 51°25.459 2°50.735 261.9 5.9 271 26
2011-11-23 11:07:16 51°25.461 2°50.578 264.3 5.9 273 25.9
2011-11-23 11:08:16 51°25.467 2°50.42 265.7 6 273 26
2011-11-23 11:09:16 51°25.472 2°50.263 265.1 5.9 273 25.8
2011-11-23 11:10:16 51°25.472 2°50.105 261.3 5.9 270 25.7
2011-11-23 11:11:16 51°25.471 2°49.949 263.6 5.8 271 25.4
2011-11-23 11:12:16 51°25.49 2°49.794 275.6 6.1 288 25.2
2011-11-23 11:13:16 51°25.522 2°49.642 276.5 6 289 25.5
2011-11-23 11:14:16 51°25.553 2°49.491 275.1 5.9 288 25.7
2011-11-23 11:15:16 51°25.582 2°49.343 272.2 5.8 285 25.7
2011-11-23 11:16:16 51°25.605 2°49.194 270.7 5.8 284 25.8
2011-11-23 11:17:16 51°25.629 2°49.044 272.7 5.9 284 26.6
2011-11-23 11:18:16 51°25.658 2°48.894 274.8 6 289 26.9
2011-11-23 11:19:16 51°25.688 2°48.743 275.2 6.1 289 26.6
2011-11-23 11:20:16 51°25.717 2°48.59 273.5 6 286 26.5
2011-11-23 11:21:16 51°25.742 2°48.436 271.7 6 284 26.3
2011-11-23 11:22:16 51°25.764 2°48.281 271.1 6 283 26.1
2011-11-23 11:23:16 51°25.787 2°48.123 272.7 6.1 285 25.9
2011-11-23 11:24:16 51°25.816 2°47.966 276.1 6.2 287 25.9
2011-11-23 11:25:16 51°25.844 2°47.808 275.2 6.2 287 25.7
2011-11-23 11:26:16 51°25.867 2°47.648 270.6 6.1 280 26.1
2011-11-23 11:27:16 51°25.884 2°47.486 269.7 6.2 279 23.7
2011-11-23 11:28:16 51°25.902 2°47.322 269.4 6.2 280 25.5
2011-11-23 11:29:16 51°25.922 2°47.158 273.3 6.3 284 25.1
2011-11-23 11:30:16 51°25.946 2°46.993 272.3 6.3 282 25.9
2011-11-23 11:31:16 51°25.969 2°46.829 272.3 6.3 283 25.9
2011-11-23 11:32:16 51°25.993 2°46.664 272.4 6.3 281 26.2
2011-11-23 11:33:16 51°26.011 2°46.5 269.7 6.3 281 26.4
2011-11-23 11:34:16 51°26.028 2°46.336 269.3 6.2 279 26.3
2011-11-23 11:35:16 51°26.046 2°46.172 271.2 6.3 282 26.6
2011-11-23 11:36:16 51°26.071 2°46.009 273.3 6.2 283 27.5
2011-11-23 11:37:16 51°26.086 2°45.848 263.9 6 273 26.4
2011-11-23 11:38:16 51°26.084 2°45.689 259.9 6 267 28.1
2011-11-23 11:39:16 51°26.083 2°45.528 261.7 6.1 270 29.6
2011-11-23 11:40:16 51°26.088 2°45.365 265.9 6.2 275 27.1
2011-11-23 11:41:16 51°26.094 2°45.2 263.8 6.2 272 28.8
2011-11-23 11:42:16 51°26.097 2°45.036 261.9 6.1 270 29.3
2011-11-23 11:43:16 51°26.095 2°44.874 261.5 6.1 269 28.2
2011-11-23 11:44:16 51°26.096 2°44.71 261.2 6.1 269 28.8
2011-11-23 11:45:16 51°26.099 2°44.546 264.6 6.2 274 30.2
2011-11-23 11:46:16 51°26.106 2°44.382 265.2 6.2 274 28.4
2011-11-23 11:47:16 51°26.111 2°44.218 263.7 6.1 271 27.6
2011-11-23 11:48:16 51°26.113 2°44.055 261.7 6.1 270 29
2011-11-23 11:49:16 51°26.113 2°43.895 262.9 6 273 28.5
2011-11-23 11:50:16 51°26.117 2°43.735 262.4 6 271 28.3
2011-11-23 11:51:16 51°26.118 2°43.572 263.9 6.1 272 27.8
2011-11-23 11:52:16 51°26.126 2°43.407 265.3 6.2 275 27.3
2011-11-23 11:53:16 51°26.134 2°43.242 264.7 6.2 275 27.9
2011-11-23 11:54:16 51°26.14 2°43.077 262.9 6.1 272 25.6
2011-11-23 11:55:16 51°26.141 2°42.914 260.9 6.1 270 28.5
2011-11-23 11:56:16 51°26.145 2°42.749 262.7 6.2 271 27.8
2011-11-23 11:57:16 51°26.15 2°42.584 263.6 6.2 272 28.6
2011-11-23 11:58:16 51°26.154 2°42.419 262.7 6.2 272 28.6
2011-11-23 11:59:16 51°26.158 2°42.254 262.3 6.2 273 29.7
2011-11-23 12:00:16 51°26.164 2°42.087 265.7 6.3 276 28
2011-11-23 12:01:16 51°26.172 2°41.92 264.5 6.3 272 31
2011-11-23 12:02:16 51°26.176 2°41.75 264.4 6.4 274 29.5
2011-11-23 12:03:16 51°26.18 2°41.579 262.4 6.4 270 30.9
2011-11-23 12:04:16 51°26.182 2°41.409 266 6.5 277 28.9
2011-11-23 12:05:16 51°26.219 2°41.243 283.3 6.8 296 30.6
2011-11-23 12:06:16 51°26.258 2°41.078 276 6.5 288 31.7
2011-11-23 12:07:16 51°26.286 2°40.913 272.5 6.4 284 33.6
2011-11-23 12:08:16 51°26.312 2°40.75 272.3 6.3 284 33.1
2011-11-23 12:09:16 51°26.339 2°40.587 273.2 6.4 286 33.7
2011-11-23 12:10:16 51°26.369 2°40.423 274.6 6.4 286 33
2011-11-23 12:11:16 51°26.4 2°40.261 275.6 6.4 287 32.9
2011-11-23 12:12:16 51°26.429 2°40.098 272.2 6.3 283 32.9
2011-11-23 12:13:16 51°26.455 2°39.934 273.1 6.4 286 33.2
2011-11-23 12:14:16 51°26.486 2°39.772 275.4 6.4 289 34.2
2011-11-23 12:15:16 51°26.518 2°39.609 274.4 6.4 288 34.1
2011-11-23 12:16:16 51°26.544 2°39.447 271.1 6.3 283 35.9
2011-11-23 12:17:16 51°26.562 2°39.285 266.9 6.2 279 37.4
2011-11-23 12:18:16 51°26.577 2°39.121 266.9 6.3 280 34.3
2011-11-23 12:19:16 51°26.593 2°38.957 267.5 6.3 280 34.1
2011-11-23 12:20:16 51°26.616 2°38.791 270.3 6.4 283 34.3
2011-11-23 12:21:16 51°26.637 2°38.625 268.4 6.4 281 34.3
2011-11-23 12:22:16 51°26.652 2°38.458 265.7 6.3 276 34.4
2011-11-23 12:23:16 51°26.668 2°38.292 267.5 6.4 280 34.1
2011-11-23 12:24:16 51°26.689 2°38.127 270.5 6.3 281 34.6
2011-11-23 12:25:16 51°26.711 2°37.962 268.5 6.3 280 34.1
2011-11-23 12:26:16 51°26.728 2°37.777 267.9 9.3 276 36
2011-11-23 12:27:16 51°26.745 2°37.49 271.2 11.3 279 34.4
2011-11-23 12:28:15 51°26.731 2°37.206 250.3 11 256 34.6
2011-11-23 12:29:16 51°26.668 2°36.933 237.8 10.8 240 34.9
2011-11-23 12:30:16 51°26.57 2°36.694 235.8 10.8 240 34.3
2011-11-23 12:31:16 51°26.481 2°36.444 234.5 10.8 236 34.9
2011-11-23 12:32:14 51°26.384 2°36.212 236.8 10.9 240 34.8
2011-11-23 12:33:15 51°26.293 2°35.954 235.8 11 238 34.2
2011-11-23 12:34:14 51°26.193 2°35.717 235.5 10.9 238 34.5
2011-11-23 12:35:15 51°26.092 2°35.467 235 11 237 34
2011-11-23 12:36:16 51°25.999 2°35.209 237.8 10.9 240 33.9
2011-11-23 12:37:15 51°25.895 2°34.975 232.1 11 234 33.4
2011-11-23 12:38:16 51°25.825 2°34.699 252.3 11.2 256 33
2011-11-23 12:39:15 51°25.766 2°34.423 242 11.2 244 29.9
2011-11-23 12:40:16 51°25.672 2°34.163 234.5 11 237 28
2011-11-23 12:41:15 51°25.576 2°33.915 235.8 11.1 238 24.5
2011-11-23 12:42:16 51°25.491 2°33.646 241.9 11.2 244 19.2
2011-11-23 12:43:15 51°25.399 2°33.398 235.2 11 239 21.3
2011-11-23 12:44:16 51°25.304 2°33.142 236 10.9 238 22.4
2011-11-23 12:45:16 51°25.208 2°32.895 234.6 11 237 23.5
2011-11-23 12:46:16 51°25.102 2°32.662 231 10.8 233 23.5
2011-11-23 12:47:16 51°24.993 2°32.434 231.4 10.8 235 25.8
2011-11-23 12:48:16 51°24.901 2°32.185 235.5 10.8 237 31.2
2011-11-23 12:49:16 51°24.789 2°31.962 227.5 10.8 229 32.3
2011-11-23 12:50:16 51°24.667 2°31.752 222.9 10.8 225 34.8
2011-11-23 12:51:16 51°24.552 2°31.533 230.7 10.7 234 31.6
2011-11-23 12:52:15 51°24.443 2°31.311 228.9 10.8 231 34.5
2011-11-23 12:53:16 51°24.325 2°31.089 225 10.7 226 34.6
2011-11-23 12:54:16 51°24.202 2°30.884 224.4 10.7 226 34.8
2011-11-23 12:55:16 51°24.082 2°30.674 225.3 10.7 229 34.3
2011-11-23 12:56:16 51°23.976 2°30.443 230.2 10.9 233 34.7
2011-11-23 12:57:16 51°23.886 2°30.278 217.1 5.6 217 34.4
2011-11-23 12:58:16 51°23.821 2°30.216 212.2 4.4 210 34.5
2011-11-23 12:59:16 51°23.757 2°30.147 215.5 4.7 215 34.3
2011-11-23 13:00:16 51°23.696 2°30.067 220.8 4.7 222 34.5
2011-11-23 13:01:16 51°23.648 2°29.966 237.4 4.8 244 34.2
2011-11-23 13:02:15 51°23.635 2°29.845 259.2 4.1 275 34.4
2011-11-23 13:03:16 51°23.657 2°29.763 280.2 2.7 309 34.5
2011-11-23 13:04:15 51°23.687 2°29.737 304.8 1.4 21 34.3
2011-11-23 13:05:16 51°23.708 2°29.759 332.6 1.6 38 33.5
2011-11-23 13:06:15 51°23.732 2°29.783 342.7 1.6 38 34.1
2011-11-23 13:07:16 51°23.745 2°29.81 4.1 1.1 56 34.4
2011-11-23 13:08:15 51°23.756 2°29.835 12.1 1.2 54 34.6
2011-11-23 13:09:16 51°23.769 2°29.862 10.6 1.3 51 34.6
2011-11-23 13:10:16 51°23.784 2°29.888 9.7 1.3 49 34.5
2011-11-23 13:11:15 51°23.799 2°29.914 6 1.4 47 34.4
2011-11-23 13:12:16 51°23.815 2°29.942 3.8 1.4 47 34.3
2011-11-23 13:13:15 51°23.831 2°29.97 0.8 1.5 46 34.3
2011-11-23 13:14:16 51°23.849 2°29.999 355.8 1.5 41 34.2
2011-11-23 13:15:15 51°23.865 2°30.029 353 1.5 49 34.3
2011-11-23 13:16:16 51°23.882 2°30.059 352.8 1.5 44 34.3
2011-11-23 13:17:15 51°23.899 2°30.089 353.3 1.5 49 33.9
2011-11-23 13:18:16 51°23.916 2°30.12 356.6 1.5 48 34.3
2011-11-23 13:19:16 51°23.933 2°30.15 358.2 1.5 48 34.3
2011-11-23 13:20:16 51°23.949 2°30.179 357.8 1.5 50 34.2
2011-11-23 13:21:16 51°23.966 2°30.209 356.1 1.5 48 34.2
2011-11-23 13:22:16 51°23.983 2°30.238 353.8 1.5 49 34.3
2011-11-23 13:23:16 51°23.999 2°30.268 355 1.5 53 35
2011-11-23 13:24:16 51°24.015 2°30.299 357.6 1.5 53 34.9
2011-11-23 13:25:15 51°24.03 2°30.327 357.9 1.4 52 35
2011-11-23 13:26:16 51°24.047 2°30.357 355.1 1.5 51 34.8
2011-11-23 13:27:15 51°24.063 2°30.386 354.9 1.5 47 34.6
2011-11-23 13:28:15 51°24.08 2°30.415 354.1 1.6 49 34.3
2011-11-23 13:29:16 51°24.097 2°30.444 352.8 1.4 48 33.9
2011-11-23 13:30:16 51°24.114 2°30.471 349.2 1.4 46 34
2011-11-23 13:31:16 51°24.131 2°30.498 346.2 1.5 47 34
2011-11-23 13:32:15 51°24.147 2°30.525 344.3 1.4 44 33.7
2011-11-23 13:33:16 51°24.163 2°30.554 343.8 1.4 46 34.4
2011-11-23 13:34:15 51°24.18 2°30.58 343.1 1.5 47 34.2
2011-11-23 13:35:16 51°24.197 2°30.607 339.6 1.4 45 34.2
2011-11-23 13:36:15 51°24.213 2°30.634 339.1 1.4 41 34.5
2011-11-23 13:37:16 51°24.231 2°30.662 340.1 1.5 48 34.2
2011-11-23 13:38:15 51°24.247 2°30.689 343.4 1.4 45 33.9
2011-11-23 13:39:16 51°24.265 2°30.716 347.1 1.4 43 34
2011-11-23 13:40:15 51°24.281 2°30.743 350.7 1.4 45 34.1
2011-11-23 13:41:16 51°24.298 2°30.768 352.6 1.3 39 34.4
2011-11-23 13:42:15 51°24.315 2°30.793 353.8 1.4 41 34.4
2011-11-23 13:43:16 51°24.333 2°30.819 354.6 1.4 42 34.8
2011-11-23 13:44:15 51°24.35 2°30.845 354.3 1.4 42 34.6
2011-11-23 13:45:16 51°24.366 2°30.871 354.4 1.3 44 34.6
2011-11-23 13:46:15 51°24.382 2°30.895 352.9 1.3 42 34.5
2011-11-23 13:47:16 51°24.399 2°30.919 352.2 1.3 46 34.4
2011-11-23 13:48:16 51°24.415 2°30.942 352.9 1.3 36 34.3
2011-11-23 13:49:16 51°24.43 2°30.965 353.1 1.3 42 34.1
2011-11-23 13:50:16 51°24.447 2°30.988 349.9 1.3 40 33.7
2011-11-23 13:51:16 51°24.462 2°31.011 346.3 1.2 37 33.7
2011-11-23 13:52:16 51°24.479 2°31.034 343.5 1.2 39 33.1
2011-11-23 13:53:16 51°24.495 2°31.058 344.1 1.3 40 32.6
2011-11-23 13:54:16 51°24.511 2°31.082 344.1 1.3 44 32.3
2011-11-23 13:55:16 51°24.528 2°31.106 347 1.3 42 33.9
2011-11-23 13:56:15 51°24.544 2°31.129 347.2 1.3 42 34.2
2011-11-23 13:57:15 51°24.56 2°31.152 346.7 1.3 43 34.3
2011-11-23 13:58:15 51°24.576 2°31.175 347.1 1.3 38 34.5
2011-11-23 13:59:15 51°24.603 2°31.197 6 2.7 19 34.6
2011-11-23 14:00:15 51°24.65 2°31.251 58.9 3.9 54 34.4
2011-11-23 14:01:15 51°24.657 2°31.343 126.9 3.4 115 33
2011-11-23 14:02:15 51°24.604 2°31.463 131 7.7 126 32
2011-11-23 14:03:15 51°24.502 2°31.683 131.4 11.7 129 33.7
2011-11-23 14:04:15 51°24.377 2°31.939 130 12.3 127 26.6
2011-11-23 14:05:15 51°24.239 2°32.178 136 12.2 135 24.9
2011-11-23 14:06:15 51°24.093 2°32.403 140.9 12.1 142 21.1
2011-11-23 14:07:15 51°23.934 2°32.604 140.2 12.2 138 27.5
2011-11-23 14:08:15 51°23.785 2°32.822 141.2 12.2 142 29.6
2011-11-23 14:09:15 51°23.623 2°33.02 143.1 12.3 142 30.8
2011-11-23 14:10:15 51°23.464 2°33.222 140.6 12.1 142 31.4
2011-11-23 14:11:15 51°23.281 2°33.354 161 12.2 164 31
2011-11-23 14:12:15 51°23.087 2°33.438 162.4 12.1 165 32.1
2011-11-23 14:13:16 51°22.893 2°33.547 155.6 12.1 157 31.7
2011-11-23 14:14:15 51°22.709 2°33.665 157 12 159 32.1
2011-11-23 14:15:15 51°22.517 2°33.754 163.2 12 164 31.2
2011-11-23 14:16:15 51°22.333 2°33.864 152.5 11.8 153 26.7
2011-11-23 14:17:15 51°22.173 2°34.045 140.1 11.8 140 24.6
2011-11-23 14:18:15 51°22.028 2°34.258 130.8 12 130 27.7
2011-11-23 14:19:16 51°21.907 2°34.515 125.7 11.9 127 28.4
2011-11-23 14:20:15 51°21.781 2°34.755 133.2 12 133 29.6
2011-11-23 14:21:16 51°21.645 2°34.994 132.3 11.9 132 30.5
2011-11-23 14:22:15 51°21.522 2°35.237 126.4 12.1 126 31.2
2011-11-23 14:23:15 51°21.391 2°35.48 133.3 12 134 31.4
2011-11-23 14:24:16 51°21.256 2°35.722 128.2 12.1 129 34.3
2011-11-23 14:25:15 51°21.132 2°35.965 129.3 12 131 31
2011-11-23 14:26:16 51°20.99 2°36.199 132.5 12 134 25.7
2011-11-23 14:27:15 51°20.866 2°36.438 129.4 11.9 131 22.7
2011-11-23 14:28:16 51°20.732 2°36.677 126.9 11.9 128 21.5
2011-11-23 14:29:15 51°20.607 2°36.913 128.3 11.9 130 22.1
2011-11-23 14:30:16 51°20.469 2°37.147 129.7 11.9 132 23
2011-11-23 14:31:15 51°20.337 2°37.375 131.1 11.7 135 22.4
2011-11-23 14:32:15 51°20.196 2°37.601 130 11.9 131 22.5
2011-11-23 14:33:16 51°20.059 2°37.836 132.2 11.9 135 22.9
2011-11-23 14:34:15 51°19.927 2°38.064 126 11.9 129 22
2011-11-23 14:35:16 51°19.79 2°38.301 132.8 12 135 22.5
2011-11-23 14:36:15 51°19.659 2°38.533 127.9 11.9 130 23.8
2011-11-23 14:37:16 51°19.519 2°38.767 133.6 12 135 26.3
2011-11-23 14:38:15 51°19.389 2°39.002 128.1 12.1 129 28.3
2011-11-23 14:39:16 51°19.25 2°39.24 133.9 12 135 28.3
2011-11-23 14:40:16 51°19.114 2°39.477 129.9 12 131 26.1
2011-11-23 14:41:16 51°18.985 2°39.72 130.7 12 131 23.9
2011-11-23 14:42:16 51°18.85 2°39.952 132.4 12 134 23.3
2011-11-23 14:43:15 51°18.716 2°40.183 131 12.1 133 23
2011-11-23 14:44:16 51°18.577 2°40.42 128.9 11.8 132 10.7
2011-11-23 14:45:15 51°18.453 2°40.654 127.6 11.8 131 18.2
2011-11-23 14:46:16 51°18.32 2°40.891 131.1 11.7 133 16.5
2011-11-23 14:47:15 51°18.191 2°41.123 126.6 12 129 20
2011-11-23 14:48:15 51°18.063 2°41.367 128 12 131 22.1
2011-11-23 14:49:15 51°17.936 2°41.612 127.5 11.9 131 23.2
2011-11-23 14:50:15 51°17.801 2°41.85 129.3 12 130 23.7
2011-11-23 14:51:16 51°17.675 2°42.105 124.6 12.1 126 23.6
2011-11-23 14:52:15 51°17.554 2°42.355 125.6 12.1 129 22.9
2011-11-23 14:53:15 51°17.426 2°42.598 127.7 11.9 131 17.3
2011-11-23 14:54:15 51°17.292 2°42.815 131.8 11.2 136 8.9
2011-11-23 14:55:15 51°17.169 2°43.04 122.4 11.5 124 12.4
2011-11-23 14:56:16 51°17.063 2°43.3 122.3 11.5 126 12.7
2011-11-23 14:57:15 51°16.941 2°43.537 126.8 11.9 128 13.3
2011-11-23 14:58:16 51°16.817 2°43.789 125.1 11.9 127 14.7
2011-11-23 14:59:15 51°16.722 2°44.057 114.6 11.8 117 14.3
2011-11-23 15:00:16 51°16.635 2°44.343 113.3 11.8 116 13.7
2011-11-23 15:01:15 51°16.549 2°44.616 114 11.6 116 10.9
2011-11-23 15:02:16 51°16.462 2°44.894 116.5 11.5 119 10
2011-11-23 15:03:15 51°16.366 2°45.157 114 11.7 115 10.5
2011-11-23 15:04:16 51°16.291 2°45.446 107.2 11.6 107 10.3
2011-11-23 15:05:16 51°16.251 2°45.745 101.4 11.5 103 9.9
2011-11-23 15:06:15 51°16.208 2°46.037 102.4 11.5 104 10.3
2011-11-23 15:07:16 51°16.158 2°46.337 104 11.5 106 10.5
2011-11-23 15:08:15 51°16.086 2°46.616 112.6 11.7 116 13
2011-11-23 15:09:16 51°16.018 2°46.908 106.2 11.4 109 15.3
2011-11-23 15:10:15 51°15.943 2°47.185 111.9 11.6 114 16.1
2011-11-23 15:11:15 51°15.863 2°47.466 111.1 11.6 113 15.6
2011-11-23 15:12:15 51°15.795 2°47.753 105.2 11.5 106 14.1
2011-11-23 15:13:15 51°15.751 2°48.048 102.2 11.4 104 12.6
2011-11-23 15:14:15 51°15.685 2°48.333 110.4 11.5 113 10.9
2011-11-23 15:15:15 51°15.617 2°48.616 108.2 11.4 110 9.9
2011-11-23 15:16:15 51°15.552 2°48.9 106.1 11.5 109 10.2
2011-11-23 15:17:15 51°15.495 2°49.191 102.2 11.5 104 12.1
2011-11-23 15:18:15 51°15.438 2°49.484 108.2 11.5 111 12.5
2011-11-23 15:19:15 51°15.379 2°49.775 101.4 11.5 103 12.3
2011-11-23 15:20:15 51°15.336 2°50.071 101.7 11.5 105 12.4
2011-11-23 15:21:15 51°15.288 2°50.365 98 11.5 100 12.3
2011-11-23 15:22:15 51°15.26 2°50.663 95.9 11.4 98 12.2
2011-11-23 15:23:15 51°15.225 2°50.959 100 11.4 103 12
2011-11-23 15:24:15 51°15.177 2°51.253 99.2 11.3 101 11.5
2011-11-23 15:25:16 51°15.127 2°51.55 103.9 11.4 108 11.2
2011-11-23 15:26:15 51°15.063 2°51.831 107.1 11.4 110 10.7
2011-11-23 15:27:15 51°15.008 2°52.12 100.5 11.4 103 10
2011-11-23 15:28:15 51°14.974 2°52.416 98.2 11.4 99 9.6
2011-11-23 15:29:16 51°14.945 2°52.719 97.4 11.4 100 9.4
2011-11-23 15:30:15 51°14.908 2°53.011 100.4 11.5 101 9.1
2011-11-23 15:31:15 51°14.866 2°53.307 100.2 11.4 103 8.9
2011-11-23 15:32:15 51°14.813 2°53.6 101.6 11.5 106 8.5
2011-11-23 15:33:16 51°14.769 2°53.9 99.7 11.5 104 8.6
2011-11-23 15:34:16 51°14.72 2°54.194 102.4 11.5 107 9
2011-11-23 15:35:15 51°14.668 2°54.48 101.2 11.3 104 9.4
2011-11-23 15:36:15 51°14.613 2°54.77 104.6 11.5 110 10.5
2011-11-23 15:37:15 51°14.511 2°55.024 129.4 11.5 134 10.6
2011-11-23 15:38:16 51°14.371 2°55.197 144.7 8.8 145 -999
2011-11-23 15:39:18 51°14.261 2°55.314 147.4 7 149 9.8
2011-11-23 15:40:19 51°14.156 2°55.403 153.7 7 155 -999
2011-11-23 15:41:17 51°14.052 2°55.479 155 7.2 156 10.2
2011-11-23 15:42:15 51°13.956 2°55.546 156.4 6 156 10.2
2011-11-23 15:43:16 51°13.86 2°55.612 155.6 6.3 156 10
2011-11-23 15:44:15 51°13.771 2°55.693 142.3 6.1 141 10.3
2011-11-23 15:45:16 51°13.71 2°55.796 128.4 4.7 129 11
2011-11-23 15:46:18 51°13.667 2°55.889 124 4 124 8.7
2011-11-23 15:47:17 51°13.644 2°55.971 106.4 3.2 104 9
2011-11-23 15:48:16 51°13.636 2°56.016 120.6 0.2 106 7.6